メインページ
METAR-TAF:

METAR-TAF

空港 :

ヒロ国際空港

ヒロ, ハワイ州, アメリカ合衆国

緯度: 19-43-20N, 経度: 155-03-21W, 海抜: 11m

現時点の気象観測

当レポートは40分前の14:53(UTC)に作成
の風 5kt
気温 21°C
湿度 73%
気圧 1017 hPa
視程: 16.1km
高度3300ftの雲はほとんどない
高度6000ftの曇り

METAR: PHTO 141453Z AUTO 17005KT 10SM FEW033 OVC060 21/16 A3003 RMK AO2 SLP168 T02060156 53003 TSNO

時間: 05:33 (15:33 UTC)

予報

当レポートは3時間52分前の11:41(UTC)に作成
予報は14日の 12時(UTC)から 15日の 12時(UTC)まで有効
南西の風 4kt
視程: 10km
高度3000ftの雲はほとんどない
高度5000ftの雲は散在している
14日の 2000時(UTC)から
の風 8kt
視程: 10km
高度5000ftの雲は散在している
15日の 0500時(UTC)から
南西の風 4kt
視程: 10km
高度2500ftの雲は散在している
高度3500ftの千切れ雲あり
近辺でにわか雨

TAF: PHTO 141141Z 1412/1512 23004KT P6SM FEW030 SCT050 FM142000 10008KT P6SM SCT050 FM150500 23004KT P6SM VCSH SCT025 BKN035

4,000以上の空港の気象観測と天気予報(METAR報とTAF報)

利用可能な観測所は地図上に黄色い丸と赤い丸で示す。

丸の上にカーソルを重ねると観測所名を参照できる。

次にクリックすると気象観測と天気予報を参照できる。

マップの切り替え:黒色「×」印の緑ボタンをクリックして拡大、「-」印の緑ボタンをクリックして縮小、緑色の三角印をクリックして隣りの地図に切り替え


METAR-TAF: